Time;durP1;ratioP1;P1;durP2;ratioP2;P2;SDS_P1;SDS_P2;PMS_P1;PMS_P2;Temp;Humidity;BMP_temperature;BMP_pressure;BME280_temperature;BME280_humidity;BME280_pressure;Samples;Min_cycle;Max_cycle;Signal;HPM_P1;HPM_P2
2022/02/17 00:00:19;;;;;;;86.10;35.32;;;;;;;;;;366353;144;857150;-59
2022/02/17 00:01:21;;;;;;;91.90;35.47;;;;;;;;;;366475;144;856391;-60
2022/02/17 00:02:23;;;;;;;84.76;36.59;;;;;;;;;;369883;144;855949;-60
2022/02/17 00:03:42;;;;;;;85.38;37.31;;;;;;;;;;365889;144;863681;-60
2022/02/17 00:04:44;;;;;;;97.20;36.72;;;;;;;;;;368594;144;856450;-60
2022/02/17 00:05:46;;;;;;;91.44;35.74;;;;;;;;;;366200;144;863625;-60
2022/02/17 00:06:47;;;;;;;88.36;36.44;;;;;;;;;;366465;144;856152;-59
2022/02/17 00:07:49;;;;;;;86.99;36.89;;;;;;;;;;366292;144;858907;-59
2022/02/17 00:08:50;;;;;;;103.36;37.64;;;;;;;;;;370041;144;856308;-59
2022/02/17 00:09:52;;;;;;;101.12;43.03;;;;;;;;;;363107;146;863891;-60
2022/02/17 00:10:54;;;;;;;107.93;41.22;;;;;;;;;;362550;147;864072;-59
2022/02/17 00:11:55;;;;;;;97.19;37.91;;;;;;;;;;361143;146;856840;-61
2022/02/17 00:12:57;;;;;;;96.49;38.14;;;;;;;;;;363070;147;857380;-60
2022/02/17 00:13:59;;;;;;;95.79;39.48;;;;;;;;;;364871;147;863906;-60
2022/02/17 00:15:00;;;;;;;106.40;39.92;;;;;;;;;;363411;146;856231;-60
2022/02/17 00:16:02;;;;;;;115.58;40.62;;;;;;;;;;362193;147;856385;-59
2022/02/17 00:17:04;;;;;;;104.97;38.73;;;;;;;;;;361838;147;863955;-60
2022/02/17 00:18:13;;;;;;;95.19;36.98;;;;;;;;;;362719;147;857379;-60
2022/02/17 00:19:15;;;;;;;95.03;39.29;;;;;;;;;;361736;146;863551;-60
2022/02/17 00:20:17;;;;;;;77.29;33.94;;;;;;;;;;362229;147;856242;-59
2022/02/17 00:21:19;;;;;;;85.93;36.35;;;;;;;;;;361483;147;856028;-60
2022/02/17 00:22:21;;;;;;;85.27;35.93;;;;;;;;;;361763;146;856436;-59
2022/02/17 00:23:25;;;;;;;85.28;34.99;;;;;;;;;;363490;147;856361;-59
2022/02/17 00:24:26;;;;;;;88.07;36.77;;;;;;;;;;362834;147;863980;-60
2022/02/17 00:25:28;;;;;;;76.48;34.16;;;;;;;;;;361345;146;864027;-59
2022/02/17 00:26:32;;;;;;;74.06;30.93;;;;;;;;;;361428;147;863623;-58
2022/02/17 00:27:34;;;;;;;89.62;35.56;;;;;;;;;;361604;147;855967;-60
2022/02/17 00:28:37;;;;;;;84.59;35.41;;;;;;;;;;363433;146;855998;-60
2022/02/17 00:29:39;;;;;;;71.58;32.28;;;;;;;;;;362013;146;864116;-60
2022/02/17 00:30:40;;;;;;;82.65;34.91;;;;;;;;;;363444;147;856516;-60
2022/02/17 00:31:42;;;;;;;78.28;31.79;;;;;;;;;;361778;147;863921;-59
2022/02/17 00:32:43;;;;;;;102.21;41.44;;;;;;;;;;362908;146;856265;-59
2022/02/17 00:33:46;;;;;;;93.25;38.37;;;;;;;;;;364460;147;856733;-59
2022/02/17 00:34:48;;;;;;;77.09;35.17;;;;;;;;;;362574;147;856509;-60
2022/02/17 00:35:50;;;;;;;72.29;35.14;;;;;;;;;;361688;146;856389;-59
2022/02/17 00:36:52;;;;;;;69.45;34.01;;;;;;;;;;365357;147;864394;-59
2022/02/17 00:37:53;;;;;;;64.79;32.78;;;;;;;;;;365870;147;856592;-59
2022/02/17 00:38:55;;;;;;;72.77;34.24;;;;;;;;;;364686;146;863844;-60
2022/02/17 00:39:56;;;;;;;65.85;31.05;;;;;;;;;;363110;146;857226;-61
2022/02/17 00:40:58;;;;;;;74.57;34.84;;;;;;;;;;362455;147;859056;-59
2022/02/17 00:42:00;;;;;;;74.86;35.41;;;;;;;;;;362715;146;856462;-60
2022/02/17 00:43:01;;;;;;;70.65;33.36;;;;;;;;;;362510;146;864497;-59
2022/02/17 00:44:03;;;;;;;72.16;35.44;;;;;;;;;;362104;147;864122;-60
2022/02/17 00:45:05;;;;;;;75.95;36.68;;;;;;;;;;355737;150;857091;-61
2022/02/17 00:46:07;;;;;;;71.81;35.25;;;;;;;;;;356412;149;856979;-60
2022/02/17 00:47:11;;;;;;;76.45;36.41;;;;;;;;;;364203;147;856049;-60
2022/02/17 00:48:12;;;;;;;71.84;33.27;;;;;;;;;;362742;147;859796;-60
2022/02/17 00:49:14;;;;;;;72.05;35.53;;;;;;;;;;365142;146;863550;-60
2022/02/17 00:51:58;;;;;;;73.10;34.21;;;;;;;1.67;83.69;98910.09;373296;142;884398;-60
2022/02/17 00:52:59;;;;;;;57.82;30.91;;;;;;;1.60;83.71;98913.41;360761;145;856181;-61
2022/02/17 00:54:01;;;;;;;51.79;26.96;;;;;;;1.59;83.61;98912.55;362286;145;856288;-62
2022/02/17 00:55:03;;;;;;;46.32;24.34;;;;;;;;;;362291;145;863883;-62
2022/02/17 00:56:05;;;;;;;51.45;26.11;;;;;;;;;;362029;145;864092;-60
2022/02/17 00:57:07;;;;;;;57.86;27.53;;;;;;;;;;361522;145;856520;-60
2022/02/17 00:58:08;;;;;;;65.14;31.77;;;;;;;;;;361093;145;855988;-59
2022/02/17 00:59:11;;;;;;;65.96;31.52;;;;;;;;;;367000;144;856512;-60
2022/02/17 01:00:13;;;;;;;66.74;33.49;;;;;;;;;;355499;148;864362;-60
2022/02/17 01:01:15;;;;;;;64.24;33.78;;;;;;;;;;365104;145;856111;-61
2022/02/17 01:02:17;;;;;;;65.56;32.79;;;;;;;;;;363196;145;857028;-60
2022/02/17 01:03:18;;;;;;;76.49;34.99;;;;;;;;;;364450;145;863838;-61
2022/02/17 01:04:20;;;;;;;74.09;34.71;;;;;;;;;;362677;145;863595;-61
2022/02/17 01:05:21;;;;;;;76.26;36.63;;;;;;;;;;364255;145;864142;-61
2022/02/17 01:06:23;;;;;;;75.67;36.36;;;;;;;;;;364404;146;857819;-60
2022/02/17 01:07:25;;;;;;;73.72;35.06;;;;;;;;;;360940;145;856397;-60
2022/02/17 01:08:26;;;;;;;76.14;35.57;;;;;;;;;;363891;145;863756;-61
2022/02/17 01:09:28;;;;;;;75.31;35.49;;;;;;;;;;364241;145;863496;-61
2022/02/17 01:12:19;;;;;;;69.29;32.62;;;;;;;2.07;81.64;98866.22;371412;142;868568;-60
2022/02/17 01:13:23;;;;;;;62.17;30.45;;;;;;;1.97;81.65;98865.30;364084;147;857970;-60
2022/02/17 01:14:43;;;;;;;52.15;26.73;;;;;;;1.99;81.64;98863.63;362052;146;856400;-60
2022/02/17 01:15:59;;;;;;;46.44;23.94;;;;;;;2.01;81.45;98855.95;356485;150;856235;-60
2022/02/17 01:17:01;;;;;;;48.59;24.29;;;;;;;;;;363167;147;856356;-60
2022/02/17 01:18:02;;;;;;;44.97;24.34;;;;;;;;;;363845;146;856983;-61
2022/02/17 01:19:04;;;;;;;48.48;26.96;;;;;;;;;;357826;149;857953;-60
2022/02/17 01:20:06;;;;;;;53.39;27.79;;;;;;;;;;364651;147;856272;-61
2022/02/17 01:21:08;;;;;;;54.53;28.73;;;;;;;;;;361938;146;863597;-61
2022/02/17 01:22:12;;;;;;;56.06;29.98;;;;;;;;;;360978;146;856532;-60
2022/02/17 01:23:13;;;;;;;53.06;28.76;;;;;;;;;;360999;147;863709;-60
2022/02/17 01:24:14;;;;;;;58.83;30.34;;;;;;;;;;360862;146;856070;-60
2022/02/17 01:25:16;;;;;;;55.36;29.52;;;;;;;;;;362552;146;863659;-60
2022/02/17 01:26:18;;;;;;;59.41;29.98;;;;;;;;;;363872;147;863610;-61
2022/02/17 01:27:20;;;;;;;59.21;31.28;;;;;;;;;;363640;147;856545;-61
2022/02/17 01:28:21;;;;;;;60.94;31.19;;;;;;;;;;363471;146;856184;-61
2022/02/17 01:29:23;;;;;;;57.44;30.01;;;;;;;;;;361221;147;863733;-61
2022/02/17 01:30:24;;;;;;;58.54;31.45;;;;;;;;;;359524;147;863923;-61
2022/02/17 01:31:26;;;;;;;54.92;30.04;;;;;;;;;;357158;147;864161;-61
2022/02/17 01:32:28;;;;;;;74.00;33.27;;;;;;;;;;356616;147;856294;-60
2022/02/17 01:33:30;;;;;;;60.78;30.66;;;;;;;;;;358231;147;856391;-61
2022/02/17 01:34:31;;;;;;;61.32;34.18;;;;;;;;;;358862;148;863843;-60
2022/02/17 01:35:33;;;;;;;63.44;32.86;;;;;;;;;;355833;148;861427;-61
2022/02/17 01:36:34;;;;;;;58.86;32.73;;;;;;;;;;351006;151;857507;-61
2022/02/17 01:37:36;;;;;;;62.71;32.16;;;;;;;;;;356898;147;863945;-61
2022/02/17 01:38:38;;;;;;;59.86;30.96;;;;;;;;;;357213;147;856697;-60
2022/02/17 01:39:40;;;;;;;64.67;33.81;;;;;;;;;;356489;147;863785;-60
2022/02/17 01:40:41;;;;;;;58.49;31.56;;;;;;;;;;359291;149;856012;-61
2022/02/17 01:41:43;;;;;;;61.83;32.81;;;;;;;;;;355741;147;864248;-60
2022/02/17 01:42:45;;;;;;;56.29;30.55;;;;;;;;;;358145;147;856625;-60
2022/02/17 01:43:47;;;;;;;54.91;31.83;;;;;;;;;;358391;148;856132;-61
2022/02/17 01:44:49;;;;;;;60.15;32.14;;;;;;;;;;358193;147;855969;-61
2022/02/17 01:45:50;;;;;;;55.86;30.09;;;;;;;;;;356409;149;856129;-61
2022/02/17 01:52:38;;;;;;;55.07;29.11;;;;;;;1.44;80.93;98772.06;370319;142;871763;-60
2022/02/17 01:53:39;;;;;;;47.15;25.61;;;;;;;1.35;81.06;98777.08;362540;147;858773;-61
2022/02/17 01:54:42;;;;;;;39.93;23.57;;;;;;;1.35;81.06;98777.08;364478;147;856419;-61
2022/02/17 01:55:46;;;;;;;37.78;21.42;;;;;;;1.32;81.37;98767.69;362833;146;863778;-61
2022/02/17 01:56:48;;;;;;;34.69;20.80;;;;;;;1.36;81.28;98766.03;361676;146;856422;-60
2022/02/17 01:57:50;;;;;;;39.51;21.37;;;;;;;1.40;81.19;98766.06;362652;147;863773;-61
2022/02/17 01:58:52;;;;;;;40.57;21.07;;;;;;;1.46;80.94;98765.28;359087;147;856398;-61
2022/02/17 01:59:54;;;;;;;35.56;20.66;;;;;;;1.52;80.77;98755.14;355262;149;856893;-60
2022/02/17 02:00:56;;;;;;;37.62;22.41;;;;;;;1.57;80.54;98756.04;360613;147;856628;-61
2022/02/17 02:01:57;;;;;;;38.74;21.81;;;;;;;1.62;80.24;98752.67;361470;147;856356;-61
2022/02/17 02:02:59;;;;;;;37.79;20.98;;;;;;;1.66;80.24;98747.62;363920;147;863912;-61
2022/02/17 02:04:02;;;;;;;41.92;22.17;;;;;;;1.74;80.21;98750.22;362225;147;856418;-61
2022/02/17 02:05:04;;;;;;;39.46;22.11;;;;;;;1.80;80.03;98751.98;361507;147;863852;-60
2022/02/17 02:06:06;;;;;;;40.16;22.31;;;;;;;1.87;79.63;98744.37;364514;147;863853;-61
2022/02/17 02:07:08;;;;;;;40.08;22.56;;;;;;;1.96;79.45;98748.71;362452;146;856021;-61
2022/02/17 02:08:10;;;;;;;44.89;24.99;;;;;;;2.01;79.22;98753.83;362094;147;863840;-60
2022/02/17 02:09:16;;;;;;;40.87;21.49;;;;;;;2.08;79.07;98750.48;362799;147;863748;-61
2022/02/17 02:10:16;;;;;;;43.31;24.48;;;;;;;2.13;78.90;98747.97;362300;146;856306;-62
2022/02/17 02:11:18;;;;;;;41.61;25.11;;;;;;;2.15;78.55;98739.50;358905;147;856391;-61
2022/02/17 02:12:19;;;;;;;41.05;24.74;;;;;;;;;;358512;149;856343;-60
2022/02/17 02:13:21;;;;;;;45.01;25.45;;;;;;;;;;359272;147;856100;-61
2022/02/17 02:14:22;;;;;;;44.02;25.58;;;;;;;;;;359171;147;856556;-61
2022/02/17 02:15:28;;;;;;;47.96;26.15;;;;;;;;;;358440;149;856621;-60
2022/02/17 02:16:28;;;;;;;44.90;27.29;;;;;;;;;;357667;148;859031;-61
2022/02/17 02:17:29;;;;;;;44.59;27.31;;;;;;;;;;358628;148;856101;-61
2022/02/17 02:18:33;;;;;;;48.41;28.23;;;;;;;;;;351314;150;864130;-61
2022/02/17 02:19:35;;;;;;;49.60;28.36;;;;;;;;;;345457;153;863797;-62
2022/02/17 02:20:38;;;;;;;52.70;29.33;;;;;;;;;;358248;148;856193;-61
2022/02/17 02:21:40;;;;;;;54.06;28.69;;;;;;;;;;354680;149;856500;-60
2022/02/17 02:22:42;;;;;;;52.06;31.71;;;;;;;;;;359273;147;856149;-61
2022/02/17 02:23:43;;;;;;;52.88;29.65;;;;;;;;;;359706;147;863716;-61
2022/02/17 02:24:45;;;;;;;56.47;31.66;;;;;;;;;;358744;147;863498;-61
2022/02/17 02:25:47;;;;;;;53.35;30.08;;;;;;;;;;358539;149;863571;-60
2022/02/17 02:26:48;;;;;;;54.63;30.61;;;;;;;;;;357938;147;856185;-61
2022/02/17 02:27:53;;;;;;;54.00;31.01;;;;;;;;;;357854;148;856744;-61
2022/02/17 02:28:54;;;;;;;55.74;30.58;;;;;;;;;;357424;147;856639;-60
2022/02/17 02:29:55;;;;;;;53.93;31.94;;;;;;;;;;359101;147;856791;-60
2022/02/17 02:31:15;;;;;;;55.68;29.96;;;;;;;;;;356859;147;856555;-61
2022/02/17 02:32:17;;;;;;;54.57;29.85;;;;;;;;;;358047;147;856734;-61
2022/02/17 02:33:19;;;;;;;54.41;29.61;;;;;;;;;;358616;148;863638;-61
2022/02/17 02:34:20;;;;;;;57.71;30.78;;;;;;;;;;358314;148;862167;-60
2022/02/17 02:35:22;;;;;;;54.59;30.33;;;;;;;;;;357569;149;863805;-61
2022/02/17 02:36:25;;;;;;;57.15;32.26;;;;;;;;;;359582;149;863636;-60
2022/02/17 02:37:27;;;;;;;50.57;29.00;;;;;;;;;;359056;147;863746;-61
2022/02/17 02:38:29;;;;;;;61.07;31.56;;;;;;;;;;359396;147;856582;-60
2022/02/17 02:39:31;;;;;;;66.31;35.53;;;;;;;;;;358292;147;863846;-60
2022/02/17 02:40:33;;;;;;;58.31;32.29;;;;;;;;;;351859;150;858474;-61
2022/02/17 02:41:35;;;;;;;61.17;32.63;;;;;;;;;;349766;150;856766;-61
2022/02/17 02:42:37;;;;;;;59.09;32.54;;;;;;;;;;359121;147;864318;-61
2022/02/17 02:43:38;;;;;;;63.05;34.66;;;;;;;;;;357516;148;863849;-61
2022/02/17 02:44:40;;;;;;;63.11;33.19;;;;;;;;;;358635;147;856279;-61
2022/02/17 02:45:43;;;;;;;62.53;33.80;;;;;;;;;;358983;147;864541;-61
2022/02/17 02:46:45;;;;;;;66.80;34.54;;;;;;;;;;358966;147;856664;-61
2022/02/17 02:47:46;;;;;;;61.80;33.65;;;;;;;;;;355571;148;856111;-60
2022/02/17 02:48:48;;;;;;;70.32;33.34;;;;;;;;;;359140;147;863890;-61
2022/02/17 02:49:50;;;;;;;61.21;33.23;;;;;;;;;;359008;147;863824;-61
2022/02/17 02:50:52;;;;;;;57.83;32.72;;;;;;;;;;359121;148;856009;-61
2022/02/17 02:51:53;;;;;;;65.66;35.46;;;;;;;;;;357264;148;856945;-60
2022/02/17 02:52:55;;;;;;;56.58;33.69;;;;;;;;;;358749;147;858819;-61
2022/02/17 02:53:56;;;;;;;51.86;28.06;;;;;;;;;;357535;148;856761;-61
2022/02/17 02:54:58;;;;;;;47.36;25.86;;;;;;;;;;358680;147;857566;-61
2022/02/17 02:56:00;;;;;;;55.34;28.69;;;;;;;;;;358304;147;856163;-61
2022/02/17 02:57:01;;;;;;;64.61;34.48;;;;;;;;;;358835;147;856953;-61
2022/02/17 02:58:03;;;;;;;59.98;31.06;;;;;;;;;;358617;148;856661;-61
2022/02/17 02:59:04;;;;;;;62.30;34.38;;;;;;;;;;351262;150;864053;-60
2022/02/17 03:00:07;;;;;;;54.33;28.21;;;;;;;;;;351664;151;856527;-61
2022/02/17 03:01:09;;;;;;;70.91;37.91;;;;;;;;;;356152;147;856007;-61
2022/02/17 03:02:10;;;;;;;70.72;36.09;;;;;;;;;;359795;147;855994;-61
2022/02/17 03:03:12;;;;;;;62.21;32.33;;;;;;;;;;352587;150;858974;-60
2022/02/17 03:04:13;;;;;;;65.70;35.47;;;;;;;;;;350306;151;864176;-60
2022/02/17 03:05:15;;;;;;;52.17;25.69;;;;;;;;;;359313;148;858695;-61
2022/02/17 03:06:17;;;;;;;43.57;23.67;;;;;;;;;;357104;147;863780;-61
2022/02/17 03:07:19;;;;;;;65.95;35.04;;;;;;;;;;357088;147;856561;-61
2022/02/17 03:08:20;;;;;;;51.51;28.71;;;;;;;;;;358088;148;858883;-61
2022/02/17 03:09:22;;;;;;;58.04;30.88;;;;;;;;;;357651;148;863652;-60
2022/02/17 03:10:27;;;;;;;60.67;32.48;;;;;;;;;;358728;149;857575;-60
2022/02/17 03:11:28;;;;;;;56.09;33.49;;;;;;;;;;359131;147;856578;-61
2022/02/17 03:12:30;;;;;;;55.14;28.74;;;;;;;;;;358356;148;856671;-61
2022/02/17 03:13:32;;;;;;;61.27;32.68;;;;;;;;;;359296;147;863821;-61
2022/02/17 03:14:33;;;;;;;67.21;36.65;;;;;;;;;;359247;147;856496;-61
2022/02/17 03:15:35;;;;;;;53.18;30.35;;;;;;;;;;358566;147;863841;-62
2022/02/17 03:16:36;;;;;;;54.43;29.01;;;;;;;;;;357333;147;863578;-61
2022/02/17 03:17:38;;;;;;;62.53;31.31;;;;;;;;;;358277;148;863439;-61
2022/02/17 03:18:40;;;;;;;57.66;30.74;;;;;;;;;;358371;147;863638;-61
2022/02/17 03:19:41;;;;;;;46.10;23.47;;;;;;;;;;357313;148;858646;-61
2022/02/17 03:20:43;;;;;;;49.09;24.26;;;;;;;;;;357347;147;856107;-60
2022/02/17 03:21:45;;;;;;;47.72;25.57;;;;;;;;;;355841;147;863828;-60
2022/02/17 03:22:46;;;;;;;45.84;25.09;;;;;;;;;;357250;147;858235;-62
2022/02/17 03:23:48;;;;;;;63.36;30.27;;;;;;;;;;358075;147;856684;-61
2022/02/17 03:32:22;;;;;;;61.71;32.56;;;;;;;1.85;86.23;98609.95;371053;142;868575;-60
2022/02/17 03:33:24;;;;;;;52.68;26.43;;;;;;;1.78;86.19;98616.70;365187;145;856781;-59
2022/02/17 03:34:25;;;;;;;35.34;19.28;;;;;;;1.81;86.21;98615.88;362891;146;856811;-60
2022/02/17 03:35:27;;;;;;;40.69;21.05;;;;;;;1.82;86.11;98610.77;364046;146;863768;-59
2022/02/17 03:36:29;;;;;;;39.89;21.81;;;;;;;1.88;85.99;98607.41;364772;146;863760;-61
2022/02/17 03:37:31;;;;;;;38.24;21.96;;;;;;;1.95;85.88;98601.49;364544;146;856585;-60
2022/02/17 03:38:33;;;;;;;36.98;19.87;;;;;;;2.02;85.69;98615.13;363391;145;863585;-60
2022/02/17 03:39:34;;;;;;;36.20;19.84;;;;;;;2.09;85.41;98609.20;364428;147;856260;-60
2022/02/17 03:40:36;;;;;;;40.74;20.94;;;;;;;2.12;85.32;98616.03;361380;146;863775;-60
2022/02/17 03:41:38;;;;;;;42.44;20.75;;;;;;;2.12;85.32;98605.83;364256;145;863532;-59
2022/02/17 03:42:42;;;;;;;45.64;27.19;;;;;;;2.25;85.11;98609.30;364361;145;856068;-58
2022/02/17 03:43:44;;;;;;;36.51;20.56;;;;;;;2.32;84.59;98601.65;362789;145;863766;-59
2022/02/17 03:44:45;;;;;;;35.03;19.22;;;;;;;2.39;84.01;98611.89;363187;145;856129;-59
2022/02/17 03:45:47;;;;;;;46.11;22.09;;;;;;;2.50;83.99;98594.89;363823;146;863563;-59
2022/02/17 03:46:49;;;;;;;41.81;23.69;;;;;;;2.59;83.55;98599.19;363797;145;863784;-60
2022/02/17 03:47:51;;;;;;;42.18;20.88;;;;;;;2.68;83.26;98595.81;363478;145;863779;-60
2022/02/17 03:48:52;;;;;;;43.22;22.84;;;;;;;2.75;82.81;98592.42;364162;146;863741;-60
2022/02/17 03:49:54;;;;;;;42.32;24.04;;;;;;;;;;365240;145;863600;-60
2022/02/17 03:50:56;;;;;;;47.61;26.61;;;;;;;;;;361888;145;856733;-62
2022/02/17 03:51:57;;;;;;;46.54;24.16;;;;;;;;;;362016;145;864107;-59
2022/02/17 03:52:59;;;;;;;39.66;22.57;;;;;;;;;;356854;147;864580;-61
2022/02/17 03:54:01;;;;;;;53.20;28.80;;;;;;;;;;354985;147;856893;-62
2022/02/17 03:55:03;;;;;;;53.13;28.82;;;;;;;;;;361807;145;863865;-61
2022/02/17 03:56:05;;;;;;;57.11;32.47;;;;;;;;;;362299;145;856176;-62
2022/02/17 03:57:06;;;;;;;44.94;24.91;;;;;;;;;;361041;144;856106;-63
2022/02/17 03:58:08;;;;;;;61.20;32.01;;;;;;;;;;362977;145;856675;-61
2022/02/17 03:59:10;;;;;;;55.24;29.42;;;;;;;;;;361342;145;864508;-62
2022/02/17 04:00:12;;;;;;;56.21;30.73;;;;;;;;;;366657;144;856079;-61
2022/02/17 04:01:14;;;;;;;62.35;33.92;;;;;;;;;;362646;144;856101;-61
2022/02/17 04:02:15;;;;;;;57.77;31.54;;;;;;;;;;360800;145;856112;-61
2022/02/17 04:03:17;;;;;;;68.82;38.94;;;;;;;;;;362824;146;858044;-61
2022/02/17 04:04:19;;;;;;;61.50;33.09;;;;;;;;;;363493;145;863805;-60
2022/02/17 04:05:20;;;;;;;61.37;33.07;;;;;;;;;;360941;145;863799;-62
2022/02/17 04:06:22;;;;;;;70.76;39.49;;;;;;;;;;362874;144;864085;-61
2022/02/17 04:07:23;;;;;;;66.27;33.39;;;;;;;;;;361540;144;864279;-61
2022/02/17 04:08:25;;;;;;;62.92;31.26;;;;;;;;;;361855;145;863888;-62
2022/02/17 04:35:52;;;;;;;62.31;30.38;;;;;;;1.68;86.69;98511.19;377262;141;880706;-60
2022/02/17 04:36:54;;;;;;;55.58;29.38;;;;;;;1.54;86.83;98505.13;367388;144;856186;-60
2022/02/17 04:37:56;;;;;;;41.16;21.65;;;;;;;1.52;87.02;98501.72;367215;144;856293;-60
2022/02/17 04:38:59;;;;;;;48.64;26.01;;;;;;;1.50;87.14;98505.96;368985;144;864445;-61
2022/02/17 04:40:01;;;;;;;45.39;24.06;;;;;;;1.53;87.21;98504.30;366140;144;856227;-61
2022/02/17 04:42:24;;;;;;;44.18;23.44;;;;;;;1.66;87.10;98497.57;365658;144;856154;-60
2022/02/17 04:43:26;;;;;;;45.89;23.81;;;;;;;1.77;87.00;98505.25;359692;147;864132;-61
2022/02/17 04:44:27;;;;;;;47.14;24.50;;;;;;;1.87;86.67;98496.79;367853;144;857297;-62
2022/02/17 04:45:29;;;;;;;51.80;24.86;;;;;;;1.97;86.28;98500.24;367639;144;856159;-60
2022/02/17 04:46:31;;;;;;;44.30;22.58;;;;;;;2.04;85.77;98498.55;366215;144;856137;-62
2022/02/17 04:47:33;;;;;;;46.68;26.21;;;;;;;;;;366681;144;856400;-62
2022/02/17 04:48:35;;;;;;;38.46;21.20;;;;;;;;;;366238;144;856055;-62
2022/02/17 04:49:36;;;;;;;47.39;27.69;;;;;;;;;;365902;144;863779;-61
2022/02/17 04:50:38;;;;;;;49.14;25.81;;;;;;;;;;364198;144;864047;-61
2022/02/17 04:51:39;;;;;;;46.91;25.58;;;;;;;;;;361836;146;863878;-61
2022/02/17 04:52:41;;;;;;;46.06;25.00;;;;;;;;;;363113;147;863683;-61
2022/02/17 04:53:43;;;;;;;53.52;29.96;;;;;;;;;;361479;147;863723;-61
2022/02/17 04:54:44;;;;;;;56.74;31.00;;;;;;;;;;363105;146;863790;-61
2022/02/17 04:55:46;;;;;;;57.55;30.77;;;;;;;;;;363384;147;863598;-61
2022/02/17 04:56:47;;;;;;;61.53;35.17;;;;;;;;;;360935;147;856481;-61
2022/02/17 04:57:49;;;;;;;53.03;29.79;;;;;;;;;;361021;147;856165;-61
2022/02/17 04:58:50;;;;;;;55.21;29.41;;;;;;;;;;362980;146;856692;-61
2022/02/17 04:59:52;;;;;;;61.89;33.09;;;;;;;;;;364804;147;856211;-61
2022/02/17 05:00:54;;;;;;;62.14;31.29;;;;;;;;;;360732;147;856501;-61
2022/02/17 05:01:55;;;;;;;62.49;32.99;;;;;;;;;;360930;146;856799;-61
2022/02/17 05:02:57;;;;;;;60.15;33.15;;;;;;;;;;362627;146;857738;-61
2022/02/17 05:03:59;;;;;;;61.14;28.63;;;;;;;;;;363303;147;861456;-61
2022/02/17 05:05:00;;;;;;;65.12;36.83;;;;;;;;;;361781;146;864272;-61
2022/02/17 05:06:02;;;;;;;57.55;31.63;;;;;;;;;;360351;146;856221;-61
2022/02/17 05:07:04;;;;;;;60.40;34.31;;;;;;;;;;361895;147;864434;-62
2022/02/17 05:08:05;;;;;;;62.34;30.87;;;;;;;;;;363786;146;864021;-61
2022/02/17 05:09:07;;;;;;;69.12;37.25;;;;;;;;;;361777;146;863825;-61
2022/02/17 05:10:09;;;;;;;56.65;30.83;;;;;;;;;;360715;147;864201;-61
2022/02/17 05:11:10;;;;;;;55.23;26.96;;;;;;;;;;362471;147;856064;-61
2022/02/17 05:12:12;;;;;;;67.59;33.61;;;;;;;;;;361593;146;856633;-61
2022/02/17 05:13:14;;;;;;;49.92;26.39;;;;;;;;;;354323;150;856255;-61
2022/02/17 05:14:15;;;;;;;64.15;35.00;;;;;;;;;;360531;147;863703;-61
2022/02/17 05:15:17;;;;;;;64.13;35.32;;;;;;;;;;363676;147;863871;-61
2022/02/17 05:16:20;;;;;;;60.95;32.93;;;;;;;;;;361930;146;863872;-61
2022/02/17 05:17:21;;;;;;;68.39;34.34;;;;;;;;;;361653;147;856584;-61
2022/02/17 05:18:23;;;;;;;68.29;35.45;;;;;;;;;;362595;147;863836;-61
2022/02/17 05:19:25;;;;;;;60.38;32.18;;;;;;;;;;361328;146;856757;-61
2022/02/17 05:20:26;;;;;;;66.88;33.43;;;;;;;;;;362309;146;863882;-61
2022/02/17 05:21:29;;;;;;;68.46;35.29;;;;;;;;;;361740;147;856727;-61
2022/02/17 05:22:30;;;;;;;65.58;36.35;;;;;;;;;;363202;147;857013;-62
2022/02/17 05:23:32;;;;;;;60.54;32.49;;;;;;;;;;355173;147;856134;-61
2022/02/17 05:24:34;;;;;;;58.98;29.12;;;;;;;;;;351882;150;856682;-61
2022/02/17 05:25:35;;;;;;;61.38;32.51;;;;;;;;;;360768;147;856318;-61
2022/02/17 05:26:37;;;;;;;66.86;34.09;;;;;;;;;;361857;147;856325;-61
2022/02/17 05:27:39;;;;;;;65.84;34.98;;;;;;;;;;364293;147;863834;-61
2022/02/17 05:28:40;;;;;;;64.45;34.11;;;;;;;;;;363457;147;863795;-60
2022/02/17 05:29:42;;;;;;;63.77;31.92;;;;;;;;;;363132;146;856089;-62
2022/02/17 05:30:44;;;;;;;69.96;39.57;;;;;;;;;;362254;146;856270;-61
2022/02/17 05:31:46;;;;;;;62.60;32.07;;;;;;;;;;363193;147;861999;-61
2022/02/17 05:32:47;;;;;;;66.21;35.56;;;;;;;;;;362795;146;863731;-62
2022/02/17 05:33:49;;;;;;;68.06;34.60;;;;;;;;;;361716;146;863771;-61
2022/02/17 05:34:51;;;;;;;67.63;37.78;;;;;;;;;;359324;147;864076;-61
2022/02/17 05:35:52;;;;;;;66.56;35.37;;;;;;;;;;360290;147;863900;-61
2022/02/17 05:36:55;;;;;;;62.67;33.12;;;;;;;;;;358640;147;857007;-61
2022/02/17 05:37:57;;;;;;;71.52;37.41;;;;;;;;;;357211;146;857858;-61
2022/02/17 05:38:58;;;;;;;65.56;35.73;;;;;;;;;;358260;147;859063;-62
2022/02/17 05:40:00;;;;;;;59.41;31.68;;;;;;;;;;358900;147;863665;-61
2022/02/17 05:41:02;;;;;;;61.06;32.25;;;;;;;;;;360246;146;864196;-61
2022/02/17 05:42:04;;;;;;;60.94;33.84;;;;;;;;;;357242;149;856877;-61
2022/02/17 05:43:05;;;;;;;67.98;35.57;;;;;;;;;;359380;147;861829;-61
2022/02/17 05:44:07;;;;;;;67.96;33.90;;;;;;;;;;358298;147;856946;-61
2022/02/17 05:45:08;;;;;;;60.09;30.74;;;;;;;;;;357889;146;856367;-61
2022/02/17 05:46:10;;;;;;;65.86;34.66;;;;;;;;;;358251;149;864318;-61
2022/02/17 05:47:12;;;;;;;65.15;36.41;;;;;;;;;;356966;147;856375;-61
2022/02/17 05:48:14;;;;;;;70.52;35.00;;;;;;;;;;359420;147;856530;-61
2022/02/17 05:49:15;;;;;;;57.47;31.29;;;;;;;;;;357355;149;857539;-61
2022/02/17 05:50:17;;;;;;;60.56;32.17;;;;;;;;;;350735;151;864532;-61
2022/02/17 05:51:19;;;;;;;63.19;34.21;;;;;;;;;;350208;150;856845;-61
2022/02/17 05:52:20;;;;;;;55.66;29.29;;;;;;;;;;350299;151;857457;-61
2022/02/17 05:53:22;;;;;;;66.41;33.30;;;;;;;;;;351449;152;863659;-61
2022/02/17 05:54:23;;;;;;;65.03;32.83;;;;;;;;;;350492;150;856713;-61
2022/02/17 05:55:26;;;;;;;64.37;34.85;;;;;;;;;;351441;150;856831;-61
2022/02/17 10:21:35;;;;;;;24.44;15.10;;;;;;;;;;361949;145;878314;-57
2022/02/17 10:22:37;;;;;;;21.58;13.79;;;;;;;;;;357468;148;857650;-58
2022/02/17 10:23:43;;;;;;;21.06;14.82;;;;;;;;;;357725;147;865745;-58
2022/02/17 10:24:49;;;;;;;29.09;17.06;;;;;;;;;;355435;149;857371;-58
2022/02/17 10:26:02;;;;;;;27.63;17.92;;;;;;;;;;357809;147;857270;-57
2022/02/17 10:27:05;;;;;;;32.55;19.69;;;;;;;;;;347896;149;857021;-59
2022/02/17 10:28:13;;;;;;;27.82;17.86;;;;;;;;;;357518;147;856188;-59
2022/02/17 10:29:14;;;;;;;24.17;14.47;;;;;;;;;;360698;148;856856;-57
2022/02/17 10:30:20;;;;;;;27.48;16.60;;;;;;;;;;358215;147;856847;-59
2022/02/17 10:31:28;;;;;;;27.06;17.07;;;;;;;;;;356076;147;856109;-59
2022/02/17 10:32:31;;;;;;;27.01;16.44;;;;;;;;;;348762;152;857202;-59
2022/02/17 10:33:39;;;;;;;24.98;14.89;;;;;;;;;;351546;153;856674;-59
2022/02/17 10:34:41;;;;;;;25.02;15.71;;;;;;;;;;350713;150;856734;-59
2022/02/17 10:35:54;;;;;;;24.18;14.33;;;;;;;;;;350593;150;856749;-59
2022/02/17 10:36:55;;;;;;;23.39;14.95;;;;;;;;;;347520;150;856737;-58
2022/02/17 10:37:57;;;;;;;25.03;14.80;;;;;;;;;;348759;150;856726;-58
2022/02/17 10:39:09;;;;;;;20.92;13.73;;;;;;;;;;351950;150;863846;-59
2022/02/17 10:40:14;;;;;;;22.53;14.25;;;;;;;;;;351313;152;856232;-59
2022/02/17 10:41:16;;;;;;;24.80;15.83;;;;;;;;;;348680;150;856190;-58
2022/02/17 10:42:18;;;;;;;23.70;15.75;;;;;;;;;;350587;150;857072;-59
2022/02/17 10:43:20;;;;;;;26.61;17.69;;;;;;;;;;350783;150;856472;-58
2022/02/17 10:44:22;;;;;;;21.80;13.59;;;;;;;;;;352102;152;858050;-58
2022/02/17 10:45:24;;;;;;;27.52;15.38;;;;;;;;;;349361;153;857006;-59
2022/02/17 10:46:30;;;;;;;23.75;14.03;;;;;;;;;;343285;157;856146;-59
2022/02/17 10:47:32;;;;;;;25.77;15.18;;;;;;;;;;347408;152;857415;-59
2022/02/17 10:48:34;;;;;;;23.96;14.09;;;;;;;;;;350223;152;856693;-59
2022/02/17 10:49:37;;;;;;;22.43;14.14;;;;;;;;;;343545;155;863881;-59
2022/02/17 10:50:39;;;;;;;20.26;11.77;;;;;;;;;;344728;156;863985;-59
2022/02/17 10:51:40;;;;;;;23.21;15.59;;;;;;;;;;349840;150;856886;-59
2022/02/17 10:52:42;;;;;;;25.02;16.15;;;;;;;;;;350270;152;863702;-58